^^
Your Local Weather - Clay, NY Station Historical Data
Daily Summary for July 13, 2017 Units:  English    Metric   Both
« Previous Day
Next Day »
Daily Weekly Monthly Yearly Custom
  High: Low: Average:
Temperature: 71.6 °F 61.5 °F 67 °F
Dew Point: 69.5 °F 58.4 °F 63.1 °F
Humidity: 93% 77% 88%
Wind Speed: 5.0mph 0.0mph 0.8mph
Wind Gust: 10.0mph - -
Wind- - West
Pressure: 29.99 in 29.82 in -
Precipitation: 0.66 in    
Historical Graphs
 
 
Tabular Data for July 13, 2017
Time Temperature Dew Point Pressure Wind Wind Speed Wind Gust Humidity Rainfall Rate (Hourly) solar
00:00 70.4 °F 68.0 °F 29.88 in Calm     92% 0.00 in 0 W/m2
00:06 70.5 °F 68.1 °F 29.88 in Calm     92% 0.00 in 0 W/m2
00:12 70.5 °F 68.1 °F 29.88 in Calm     92% 0.00 in 0 W/m2
00:18 70.6 °F 68.2 °F 29.89 in NNW 1.0 mph 3.0 mph 92% 0.00 in 0 W/m2
00:24 70.6 °F 68.2 °F 29.88 in NNE 2.0 mph 7.0 mph 92% 0.00 in 0 W/m2
00:30 70.8 °F 68.4 °F 29.87 in ESE 2.0 mph 2.0 mph 92% 0.00 in 0 W/m2
00:36 70.8 °F 68.4 °F 29.88 in ESE 1.0 mph 2.0 mph 92% 0.00 in 0 W/m2
00:42 70.9 °F 68.5 °F 29.88 in Calm   1.0 mph 92% 0.00 in 0 W/m2
00:48 70.8 °F 68.4 °F 29.87 in Calm   1.0 mph 92% 0.00 in 0 W/m2
00:54 70.8 °F 68.4 °F 29.86 in Calm   1.0 mph 92% 0.00 in 0 W/m2
01:00 70.9 °F 68.5 °F 29.86 in Calm     92% 0.00 in 0 W/m2
01:06 71.1 °F 68.7 °F 29.86 in Calm   1.0 mph 92% 0.00 in 0 W/m2
01:12 71.3 °F 68.9 °F 29.87 in Calm     92% 0.00 in 0 W/m2
01:18 71.3 °F 68.9 °F 29.87 in Calm     92% 0.00 in 0 W/m2
01:24 71.3 °F 68.9 °F 29.87 in Calm   1.0 mph 92% 0.04 in 0 W/m2
01:30 71.0 °F 68.6 °F 29.86 in Calm     92% 0.06 in 0 W/m2
01:36 70.9 °F 68.5 °F 29.86 in Calm     92% 0.06 in 0 W/m2
01:42 70.9 °F 68.8 °F 29.86 in Calm     93% 0.08 in 0 W/m2
01:48 70.8 °F 68.7 °F 29.86 in Calm     93% 0.09 in 0 W/m2
01:54 70.7 °F 68.6 °F 29.86 in Calm     93% 0.14 in 0 W/m2
02:00 70.8 °F 68.7 °F 29.86 in Calm     93% 0.28 in 0 W/m2
02:06 71.0 °F 68.9 °F 29.87 in Calm   1.0 mph 93% 1.29 in 0 W/m2
02:12 70.9 °F 68.8 °F 29.86 in East 1.0 mph 1.0 mph 93% 0.28 in 0 W/m2
02:18 70.8 °F 68.7 °F 29.85 in East 1.0 mph 1.0 mph 93% 0.14 in 0 W/m2
02:24 70.8 °F 68.7 °F 29.84 in Calm   2.0 mph 93% 0.09 in 0 W/m2
02:30 70.9 °F 68.8 °F 29.84 in Calm     93% 0.06 in 0 W/m2
02:36 71.0 °F 68.9 °F 29.84 in SSE 1.0 mph 5.0 mph 93% 0.68 in 0 W/m2
02:42 71.0 °F 68.9 °F 29.83 in SSW 4.0 mph 10.0 mph 93% 0.15 in 0 W/m2
02:48 71.0 °F 68.9 °F 29.82 in SSE 4.0 mph 10.0 mph 93% 0.10 in 0 W/m2
02:54 71.0 °F 68.9 °F 29.83 in SSW 5.0 mph 5.0 mph 93% 0.06 in 0 W/m2
03:00 71.1 °F 69.0 °F 29.83 in WSW 4.0 mph 4.0 mph 93% 0.20 in 0 W/m2
03:06 71.2 °F 69.1 °F 29.83 in SW 2.0 mph 4.0 mph 93% 0.12 in 0 W/m2
03:12 71.3 °F 69.2 °F 29.83 in SW 1.0 mph 2.0 mph 93% 0.11 in 0 W/m2
03:18 71.3 °F 69.2 °F 29.83 in SW 2.0 mph 2.0 mph 93% 0.06 in 0 W/m2
03:24 71.5 °F 69.4 °F 29.83 in SSW 3.0 mph 8.0 mph 93% 0.04 in 0 W/m2
03:30 71.6 °F 69.5 °F 29.83 in South 3.0 mph 3.0 mph 93% 0.00 in 0 W/m2
03:36 71.6 °F 69.5 °F 29.83 in SW 2.0 mph 3.0 mph 93% 0.00 in 0 W/m2
03:42 71.6 °F 69.5 °F 29.83 in WSW 2.0 mph 4.0 mph 93% 0.00 in 0 W/m2
03:48 71.5 °F 69.4 °F 29.83 in WSW 1.0 mph 4.0 mph 93% 0.00 in 0 W/m2
03:54 71.4 °F 69.0 °F 29.83 in WSW 1.0 mph 1.0 mph 92% 0.00 in 0 W/m2
04:00 71.3 °F 68.9 °F 29.83 in West 1.0 mph 1.0 mph 92% 0.00 in 0 W/m2
04:06 71.4 °F 69.3 °F 29.84 in West 1.0 mph 2.0 mph 93% 0.00 in 0 W/m2
04:12 71.4 °F 69.3 °F 29.84 in NNW 1.0 mph 1.0 mph 93% 0.00 in 0 W/m2
04:18 71.4 °F 69.3 °F 29.84 in WNW 1.0 mph 3.0 mph 93% 0.00 in 0 W/m2
04:24 71.4 °F 69.3 °F 29.84 in West 1.0 mph 3.0 mph 93% 0.00 in 0 W/m2
04:30 71.4 °F 69.3 °F 29.86 in WSW 1.0 mph 1.0 mph 93% 0.00 in 0 W/m2
04:36 71.4 °F 69.3 °F 29.86 in West 2.0 mph 4.0 mph 93% 0.00 in 0 W/m2
04:42 71.3 °F 68.9 °F 29.86 in NW 2.0 mph 6.0 mph 92% 0.00 in 0 W/m2
04:48 71.1 °F 68.7 °F 29.86 in WSW 1.0 mph 6.0 mph 92% 0.00 in 0 W/m2
04:54 71.0 °F 68.6 °F 29.86 in East 2.0 mph 5.0 mph 92% 0.00 in 0 W/m2
05:00 70.9 °F 68.5 °F 29.86 in West 1.0 mph 1.0 mph 92% 0.00 in 0 W/m2
05:06 70.8 °F 68.4 °F 29.87 in North 1.0 mph 2.0 mph 92% 0.00 in 0 W/m2
05:12 70.7 °F 68.3 °F 29.87 in SW 1.0 mph 5.0 mph 92% 0.00 in 0 W/m2
05:18 70.5 °F 67.7 °F 29.87 in WNW 2.0 mph 5.0 mph 91% 0.00 in 0 W/m2
05:24 70.2 °F 67.4 °F 29.88 in WNW 1.0 mph 2.0 mph 91% 0.00 in 0 W/m2
05:30 70.0 °F 67.3 °F 29.88 in WNW 2.0 mph 2.0 mph 91% 0.00 in 0 W/m2
05:36 69.8 °F 67.1 °F 29.89 in NW 2.0 mph 2.0 mph 91% 0.00 in 0 W/m2
05:42 69.6 °F 66.9 °F 29.89 in NNW 2.0 mph 2.0 mph 91% 0.00 in 0 W/m2
05:48 69.4 °F 66.3 °F 29.89 in NW 2.0 mph 4.0 mph 90% 0.00 in 0 W/m2
05:54 69.1 °F 66.0 °F 29.90 in NW 2.0 mph 4.0 mph 90% 0.00 in 0 W/m2
06:00 68.7 °F 65.6 °F 29.90 in NNW 2.0 mph 2.0 mph 90% 0.00 in 5 W/m2
06:06 68.5 °F 65.4 °F 29.90 in West 2.0 mph 2.0 mph 90% 0.00 in 7 W/m2
06:12 68.2 °F 65.2 °F 29.91 in West 2.0 mph 2.0 mph 90% 0.00 in 11 W/m2
06:18 68.0 °F 65.0 °F 29.91 in West 1.0 mph 2.0 mph 90% 0.00 in 14 W/m2
06:24 67.8 °F 65.1 °F 29.91 in NW 1.0 mph 4.0 mph 91% 0.00 in 16 W/m2
06:30 67.6 °F 64.9 °F 29.91 in NW 1.0 mph 1.0 mph 91% 0.00 in 12 W/m2
06:36 67.3 °F 64.6 °F 29.91 in NNW 1.0 mph 3.0 mph 91% 0.00 in 18 W/m2
06:42 67.0 °F 64.3 °F 29.92 in NNW 1.0 mph 2.0 mph 91% 0.00 in 19 W/m2
06:48 66.7 °F 64.0 °F 29.92 in NW 1.0 mph 4.0 mph 91% 0.00 in 14 W/m2
06:54 66.3 °F 63.6 °F 29.92 in NW 1.0 mph 1.0 mph 91% 0.00 in 25 W/m2
07:00 66.0 °F 63.3 °F 29.92 in NNW 1.0 mph 2.0 mph 91% 0.00 in 42 W/m2
07:06 65.8 °F 63.1 °F 29.92 in NNW 1.0 mph 2.0 mph 91% 0.00 in 51 W/m2
07:12 65.4 °F 62.7 °F 29.93 in NW 1.0 mph 2.0 mph 91% 0.00 in 65 W/m2
07:18 64.9 °F 61.9 °F 29.93 in NW 1.0 mph 2.0 mph 90% 0.00 in 72 W/m2
07:24 64.7 °F 61.7 °F 29.94 in NW 1.0 mph 1.0 mph 90% 0.00 in 100 W/m2
07:30 64.7 °F 61.7 °F 29.94 in NW 1.0 mph 1.0 mph 90% 0.00 in 128 W/m2
07:36 64.7 °F 61.7 °F 29.94 in Calm   2.0 mph 90% 0.00 in 107 W/m2
07:42 64.9 °F 61.9 °F 29.93 in WNW 1.0 mph 2.0 mph 90% 0.00 in 95 W/m2
07:48 64.6 °F 61.0 °F 29.93 in NNW 1.0 mph 2.0 mph 88% 0.00 in 113 W/m2
07:54 64.5 °F 60.9 °F 29.94 in NW 1.0 mph 2.0 mph 88% 0.00 in 137 W/m2
08:00 64.7 °F 61.1 °F 29.94 in NW 1.0 mph 1.0 mph 88% 0.00 in 213 W/m2
08:06 65.1 °F 61.5 °F 29.94 in NW 1.0 mph 1.0 mph 88% 0.00 in 248 W/m2
08:12 65.4 °F 61.1 °F 29.94 in Calm     86% 0.00 in 283 W/m2
08:18 65.4 °F 60.8 °F 29.94 in SW 1.0 mph 1.0 mph 85% 0.00 in 202 W/m2
08:24 65.4 °F 60.8 °F 29.94 in WSW 1.0 mph 1.0 mph 85% 0.00 in 237 W/m2
08:30 65.6 °F 61.0 °F 29.94 in NW 1.0 mph 1.0 mph 85% 0.00 in 346 W/m2
08:36 66.1 °F 61.5 °F 29.94 in NW 1.0 mph 2.0 mph 85% 0.00 in 369 W/m2
08:42 66.5 °F 61.2 °F 29.95 in NNW 1.0 mph 1.0 mph 83% 0.00 in 417 W/m2
08:48 67.1 °F 61.8 °F 29.95 in North 1.0 mph 1.0 mph 83% 0.00 in 255 W/m2
08:54 67.1 °F 61.1 °F 29.95 in North 1.0 mph 1.0 mph 81% 0.00 in 301 W/m2
09:00 67.3 °F 61.3 °F 29.94 in NNW 1.0 mph 2.0 mph 81% 0.00 in 401 W/m2
09:06 67.5 °F 61.5 °F 29.94 in NW 1.0 mph 3.0 mph 81% 0.00 in 343 W/m2
09:12 67.4 °F 61.4 °F 29.94 in NNW 1.0 mph 1.0 mph 81% 0.00 in 255 W/m2
09:18 67.2 °F 60.8 °F 29.94 in NW 1.0 mph 1.0 mph 80% 0.00 in 272 W/m2
09:24 67.0 °F 60.3 °F 29.94 in NNW 2.0 mph 3.0 mph 79% 0.00 in 297 W/m2
09:30 67.0 °F 60.6 °F 29.94 in NNW 1.0 mph 3.0 mph 80% 0.00 in 313 W/m2
09:36 67.2 °F 60.8 °F 29.95 in NW 1.0 mph 3.0 mph 80% 0.00 in 360 W/m2
09:42 67.2 °F 60.1 °F 29.95 in NNW 1.0 mph 3.0 mph 78% 0.00 in 315 W/m2
09:48 67.2 °F 60.1 °F 29.95 in NNW 1.0 mph 5.0 mph 78% 0.00 in 322 W/m2
09:54 67.2 °F 60.5 °F 29.95 in North 2.0 mph 3.0 mph 79% 0.00 in 301 W/m2
10:00 67.0 °F 59.9 °F 29.95 in NW 1.0 mph 1.0 mph 78% 0.00 in 285 W/m2
10:06 67.1 °F 60.4 °F 29.95 in NNW 1.0 mph 1.0 mph 79% 0.00 in 329 W/m2
10:12 67.2 °F 60.5 °F 29.95 in WNW 1.0 mph 2.0 mph 79% 0.00 in 338 W/m2
10:18 67.6 °F 61.2 °F 29.95 in NNW 2.0 mph 2.0 mph 80% 0.00 in 306 W/m2
10:24 67.7 °F 61.0 °F 29.95 in NNW 1.0 mph 2.0 mph 79% 0.00 in 283 W/m2
10:30 67.6 °F 60.5 °F 29.95 in NNW 1.0 mph 1.0 mph 78% 0.00 in 269 W/m2
10:36 67.4 °F 60.3 °F 29.96 in NNE 1.0 mph 5.0 mph 78% 0.00 in 255 W/m2
10:42 67.1 °F 60.0 °F 29.96 in North 2.0 mph 2.0 mph 78% 0.00 in 223 W/m2
10:48 67.0 °F 59.9 °F 29.97 in NNW 2.0 mph 2.0 mph 78% 0.00 in 213 W/m2
10:54 66.7 °F 59.3 °F 29.97 in NNE 1.0 mph 2.0 mph 77% 0.00 in 209 W/m2
11:00 66.5 °F 59.4 °F 29.96 in NNE 1.0 mph 2.0 mph 78% 0.00 in 209 W/m2
11:06 66.3 °F 59.2 °F 29.96 in NNW 1.0 mph 3.0 mph 78% 0.00 in 207 W/m2
11:12 66.3 °F 59.2 °F 29.96 in NNW 1.0 mph 3.0 mph 78% 0.00 in 216 W/m2
11:18 66.4 °F 59.3 °F 29.96 in NNW 2.0 mph 3.0 mph 78% 0.00 in 204 W/m2
11:24 66.5 °F 59.4 °F 29.96 in Calm   1.0 mph 78% 0.00 in 178 W/m2
11:30 66.3 °F 59.2 °F 29.97 in Calm     78% 0.00 in 155 W/m2
11:36 66.2 °F 59.1 °F 29.97 in NNW 1.0 mph 1.0 mph 78% 0.00 in 141 W/m2
11:42 66.1 °F 59.0 °F 29.96 in North 2.0 mph 2.0 mph 78% 0.00 in 95 W/m2
11:48 65.6 °F 58.9 °F 29.95 in North 1.0 mph 2.0 mph 79% 0.00 in 76 W/m2
11:54 65.4 °F 58.4 °F 29.95 in Calm   3.0 mph 78% 0.00 in 70 W/m2
12:00 65.2 °F 58.5 °F 29.95 in Calm     79% 0.00 in 58 W/m2
12:06 65.0 °F 59.0 °F 29.95 in North 1.0 mph 2.0 mph 81% 0.00 in 46 W/m2
12:12 64.9 °F 58.9 °F 29.96 in North 1.0 mph 1.0 mph 81% 0.00 in 37 W/m2
12:18 64.6 °F 59.0 °F 29.96 in Calm   1.0 mph 82% 0.00 in 30 W/m2
12:24 64.5 °F 58.9 °F 29.96 in Calm     82% 0.00 in 26 W/m2
12:30 64.4 °F 58.8 °F 29.97 in Calm     82% 0.00 in 25 W/m2
12:36 64.1 °F 58.8 °F 29.97 in Calm     83% 0.00 in 21 W/m2
12:42 63.8 °F 58.5 °F 29.97 in Calm     83% 0.11 in 19 W/m2
12:48 63.6 °F 59.0 °F 29.97 in Calm     85% 0.11 in 23 W/m2
12:54 63.6 °F 59.3 °F 29.97 in Calm     86% 0.09 in 26 W/m2
13:00 63.5 °F 59.6 °F 29.97 in Calm     87% 0.11 in 26 W/m2
13:06 63.3 °F 59.7 °F 29.97 in Calm     88% 0.10 in 26 W/m2
13:12 63.1 °F 59.5 °F 29.97 in Calm     88% 0.17 in 30 W/m2
13:18 63.0 °F 59.7 °F 29.97 in Calm     89% 0.28 in 28 W/m2
13:24 62.8 °F 59.5 °F 29.98 in Calm   1.0 mph 89% 0.33 in 30 W/m2
13:30 62.5 °F 59.5 °F 29.97 in Calm     90% 0.22 in 42 W/m2
13:36 62.3 °F 59.3 °F 29.97 in Calm   1.0 mph 90% 0.13 in 63 W/m2
13:42 62.3 °F 59.3 °F 29.98 in WSW 1.0 mph 1.0 mph 90% 0.16 in 63 W/m2
13:48 62.5 °F 59.8 °F 29.99 in Calm   2.0 mph 91% 0.07 in 60 W/m2
13:54 62.3 °F 59.6 °F 29.98 in NW 2.0 mph 2.0 mph 91% 0.07 in 65 W/m2
14:00 62.1 °F 59.4 °F 29.97 in NNW 2.0 mph 2.0 mph 91% 0.07 in 83 W/m2
14:06 61.9 °F 59.2 °F 29.97 in WNW 2.0 mph 2.0 mph 91% 0.08 in 114 W/m2
14:12 61.8 °F 59.1 °F 29.96 in North 2.0 mph 4.0 mph 91% 0.06 in 127 W/m2
14:18 61.7 °F 59.0 °F 29.96 in North 1.0 mph 4.0 mph 91% 0.04 in 111 W/m2
14:24 61.9 °F 59.2 °F 29.96 in NW 1.0 mph 3.0 mph 91% 0.00 in 109 W/m2
14:30 61.9 °F 59.2 °F 29.96 in NW 2.0 mph 2.0 mph 91% 0.00 in 105 W/m2
14:36 62.0 °F 59.3 °F 29.97 in North 2.0 mph 4.0 mph 91% 0.00 in 79 W/m2
14:42 61.8 °F 59.1 °F 29.97 in North 3.0 mph 6.0 mph 91% 0.00 in 95 W/m2
14:48 61.5 °F 58.8 °F 29.96 in NNE 4.0 mph 6.0 mph 91% 0.05 in 120 W/m2
14:54 61.6 °F 58.9 °F 29.96 in NW 3.0 mph 4.0 mph 91% 0.05 in 156 W/m2
15:00 62.0 °F 59.6 °F 29.97 in NW 1.0 mph 1.0 mph 92% 0.00 in 299 W/m2
15:06 62.7 °F 60.3 °F 29.99 in North 1.0 mph 2.0 mph 92% 0.00 in 246 W/m2
15:12 62.9 °F 60.5 °F 29.99 in NW 1.0 mph 1.0 mph 92% 0.00 in 202 W/m2
15:18 62.9 °F 60.5 °F 29.97 in NNW 1.0 mph 2.0 mph 92% 0.00 in 199 W/m2
15:24 63.1 °F 60.4 °F 29.98 in Calm     91% 0.00 in 213 W/m2
15:30 63.3 °F 60.6 °F 29.97 in NNW 1.0 mph 1.0 mph 91% 0.00 in 250 W/m2
15:36 63.4 °F 60.7 °F 29.98 in NW 1.0 mph 1.0 mph 91% 0.00 in 302 W/m2
15:42 64.3 °F 61.3 °F 29.97 in NW 1.0 mph 3.0 mph 90% 0.00 in 668 W/m2
15:48 66.1 °F 62.8 °F 29.97 in North 1.0 mph 3.0 mph 89% 0.00 in 874 W/m2
15:54 66.4 °F 62.1 °F 29.96 in NNW 1.0 mph 3.0 mph 86% 0.00 in 919 W/m2
16:00 66.0 °F 61.0 °F 29.96 in North 2.0 mph 2.0 mph 84% 0.00 in 374 W/m2
16:06 66.4 °F 62.1 °F 29.96 in North 2.0 mph 2.0 mph 86% 0.00 in 439 W/m2
16:12 66.3 °F 61.3 °F 29.97 in North 1.0 mph 1.0 mph 84% 0.00 in 278 W/m2
16:18 66.7 °F 62.0 °F 29.96 in North 1.0 mph 2.0 mph 85% 0.00 in 353 W/m2
16:24 66.4 °F 61.4 °F 29.96 in North 1.0 mph 1.0 mph 84% 0.00 in 274 W/m2
16:30 66.6 °F 61.9 °F 29.96 in North 1.0 mph 1.0 mph 85% 0.00 in 452 W/m2
16:36 67.2 °F 62.2 °F 29.96 in WNW 1.0 mph 2.0 mph 84% 0.00 in 274 W/m2
16:42 66.9 °F 61.9 °F 29.96 in WNW 1.0 mph 1.0 mph 84% 0.00 in 304 W/m2
16:48 66.7 °F 62.4 °F 29.96 in Calm   3.0 mph 86% 0.00 in 334 W/m2
16:54 67.2 °F 62.5 °F 29.96 in WNW 1.0 mph 2.0 mph 85% 0.00 in 213 W/m2
17:00 67.0 °F 62.0 °F 29.96 in WNW 1.0 mph 2.0 mph 84% 0.00 in 318 W/m2
17:06 67.2 °F 62.2 °F 29.96 in WNW 1.0 mph 2.0 mph 84% 0.00 in 142 W/m2
17:12 67.2 °F 62.2 °F 29.96 in Calm   2.0 mph 84% 0.00 in 229 W/m2
17:18 67.4 °F 62.1 °F 29.96 in Calm   2.0 mph 83% 0.00 in 188 W/m2
17:24 67.6 °F 62.6 °F 29.96 in Calm   2.0 mph 84% 0.00 in 186 W/m2
17:30 67.7 °F 62.0 °F 29.96 in WNW 1.0 mph 4.0 mph 82% 0.00 in 134 W/m2
17:36 67.7 °F 61.7 °F 29.96 in WNW 1.0 mph 4.0 mph 81% 0.00 in 156 W/m2
17:42 67.9 °F 62.5 °F 29.96 in Calm   1.0 mph 83% 0.00 in 199 W/m2
17:48 68.3 °F 61.9 °F 29.96 in West 1.0 mph 1.0 mph 80% 0.00 in 165 W/m2
17:54 68.0 °F 61.6 °F 29.96 in WSW 2.0 mph 2.0 mph 80% 0.00 in 84 W/m2
18:00 67.8 °F 61.8 °F 29.96 in WSW 1.0 mph 1.0 mph 81% 0.00 in 141 W/m2
18:06 67.8 °F 61.8 °F 29.96 in WNW 1.0 mph 3.0 mph 81% 0.00 in 151 W/m2
18:12 67.8 °F 61.8 °F 29.96 in WNW 1.0 mph 1.0 mph 81% 0.00 in 188 W/m2
18:18 68.1 °F 62.0 °F 29.96 in WNW 1.0 mph 1.0 mph 81% 0.00 in 111 W/m2
18:24 68.0 °F 61.9 °F 29.96 in WNW 1.0 mph 1.0 mph 81% 0.00 in 113 W/m2
18:30 67.9 °F 61.9 °F 29.96 in Calm     81% 0.00 in 125 W/m2
18:36 68.0 °F 62.3 °F 29.96 in Calm     82% 0.00 in 120 W/m2
18:42 67.9 °F 62.2 °F 29.96 in Calm     82% 0.00 in 113 W/m2
18:48 67.9 °F 62.2 °F 29.96 in Calm     82% 0.00 in 100 W/m2
18:54 67.8 °F 62.1 °F 29.96 in Calm     82% 0.00 in 77 W/m2
19:00 67.7 °F 62.0 °F 29.96 in Calm     82% 0.00 in 81 W/m2
19:06 67.7 °F 62.0 °F 29.96 in Calm     82% 0.00 in 88 W/m2
19:12 67.5 °F 61.8 °F 29.96 in Calm     82% 0.00 in 70 W/m2
19:18 67.3 °F 61.6 °F 29.96 in Calm   2.0 mph 82% 0.00 in 54 W/m2
19:24 67.2 °F 61.5 °F 29.96 in Calm   1.0 mph 82% 0.00 in 58 W/m2
19:30 67.1 °F 61.4 °F 29.96 in Calm     82% 0.00 in 54 W/m2
19:36 67.1 °F 61.4 °F 29.96 in Calm     82% 0.00 in 44 W/m2
19:42 67.2 °F 62.2 °F 29.96 in Calm     84% 0.00 in 35 W/m2
19:48 67.1 °F 62.1 °F 29.96 in Calm     84% 0.00 in 42 W/m2
19:54 67.0 °F 61.7 °F 29.96 in Calm     83% 0.00 in 35 W/m2
20:00 67.0 °F 61.7 °F 29.96 in Calm     83% 0.00 in 35 W/m2
20:06 66.8 °F 62.5 °F 29.96 in Calm     86% 0.00 in 28 W/m2
20:12 66.5 °F 62.2 °F 29.96 in Calm     86% 0.00 in 23 W/m2
20:18 66.4 °F 62.4 °F 29.96 in Calm     87% 0.00 in 16 W/m2
20:24 66.4 °F 62.4 °F 29.96 in Calm     87% 0.00 in 12 W/m2
20:30 66.3 °F 62.3 °F 29.96 in Calm     87% 0.00 in 11 W/m2
20:36 66.3 °F 62.3 °F 29.96 in Calm     87% 0.00 in 5 W/m2
20:42 66.2 °F 62.2 °F 29.96 in Calm     87% 0.00 in 0 W/m2
20:50 66.2 °F 62.2 °F 29.96 in Calm   2.0 mph 87% 0.00 in 0 W/m2
20:56 66.2 °F 61.9 °F 29.96 in Calm   2.0 mph 86% 0.00 in 0 W/m2
21:02 66.3 °F 62.0 °F 29.97 in Calm     86% 0.00 in 0 W/m2
21:08 66.3 °F 62.6 °F 29.96 in Calm     88% 0.00 in 0 W/m2
21:14 66.1 °F 62.8 °F 29.97 in Calm     89% 0.00 in 0 W/m2
21:20 65.7 °F 62.4 °F 29.98 in Calm     89% 0.00 in 0 W/m2
21:26 65.4 °F 62.1 °F 29.98 in Calm     89% 0.00 in 0 W/m2
21:32 65.1 °F 62.1 °F 29.97 in Calm   2.0 mph 90% 0.00 in 0 W/m2
21:38 65.0 °F 62.0 °F 29.97 in Calm   2.0 mph 90% 0.00 in 0 W/m2
21:44 65.0 °F 62.0 °F 29.97 in Calm     90% 0.00 in 0 W/m2
21:50 65.0 °F 62.3 °F 29.97 in Calm     91% 0.00 in 0 W/m2
21:56 65.1 °F 62.4 °F 29.97 in Calm     91% 0.00 in 0 W/m2
22:02 65.1 °F 62.4 °F 29.97 in Calm     91% 0.00 in 0 W/m2
22:08 65.0 °F 62.3 °F 29.97 in Calm     91% 0.00 in 0 W/m2
22:14 65.0 °F 62.3 °F 29.98 in Calm     91% 0.00 in 0 W/m2
22:20 65.1 °F 62.4 °F 29.98 in Calm     91% 0.00 in 0 W/m2
22:26 65.0 °F 62.3 °F 29.98 in Calm   2.0 mph 91% 0.00 in 0 W/m2
22:32 64.9 °F 62.5 °F 29.98 in Calm     92% 0.00 in 0 W/m2
22:38 64.9 °F 62.5 °F 29.97 in Calm     92% 0.00 in 0 W/m2
22:44 64.9 °F 62.5 °F 29.97 in Calm     92% 0.00 in 0 W/m2
22:50 64.9 °F 62.5 °F 29.97 in Calm     92% 0.00 in 0 W/m2
22:56 64.9 °F 62.5 °F 29.97 in Calm   1.0 mph 92% 0.00 in 0 W/m2
23:02 64.9 °F 62.5 °F 29.97 in Calm   1.0 mph 92% 0.00 in 0 W/m2
23:08 64.9 °F 62.5 °F 29.96 in Calm   1.0 mph 92% 0.00 in 0 W/m2
23:14 64.8 °F 62.4 °F 29.96 in Calm     92% 0.00 in 0 W/m2
23:20 64.9 °F 62.8 °F 29.96 in Calm     93% 0.00 in 0 W/m2
23:26 64.9 °F 62.8 °F 29.96 in Calm     93% 0.00 in 0 W/m2
23:32 65.0 °F 62.9 °F 29.96 in Calm     93% 0.00 in 0 W/m2
23:38 65.1 °F 63.0 °F 29.96 in Calm     93% 0.00 in 0 W/m2
23:44 65.0 °F 62.9 °F 29.96 in Calm     93% 0.00 in 0 W/m2
23:50 65.0 °F 62.9 °F 29.96 in Calm     93% 0.00 in 0 W/m2
23:56 65.1 °F 63.0 °F 29.96 in Calm   1.0 mph 93% 0.00 in 0 W/m2
Country Meadow, Clay, NY, USA
Compliments of Weather Underground - 2 mb